Time;durP1;ratioP1;P1;durP2;ratioP2;P2;SDS_P1;SDS_P2;PMS_P1;PMS_P2;Temp;Humidity;BMP_temperature;BMP_pressure;BME280_temperature;BME280_humidity;BME280_pressure;Samples;Min_cycle;Max_cycle;Signal;HPM_P1;HPM_P2
2023/07/10 08:38:06;;;;;;;14.77;2.80;;;24.00;99.90;;;;;;5088246;27;20464;-78
2023/07/10 08:40:56;;;;;;;13.13;3.63;;;24.10;99.90;;;;;;5106623;28;20138;-79
2023/07/10 08:43:43;;;;;;;14.02;3.28;;;24.40;99.90;;;;;;5092326;28;20048;-79
2023/07/10 08:46:30;;;;;;;14.07;4.50;;;24.30;99.90;;;;;;5089335;28;20051;-80
2023/07/10 08:49:40;;;;;;;9.77;2.63;;;24.30;99.90;;;;;;5092909;28;20060;-81
2023/07/10 08:52:40;;;;;;;13.48;3.03;;;24.30;99.90;;;;;;5107407;28;20143;-79
2023/07/10 08:55:36;;;;;;;11.65;3.30;;;24.60;99.90;;;;;;5092675;28;20065;-78
2023/07/10 08:58:27;;;;;;;9.93;2.92;;;24.60;99.90;;;;;;5127339;28;20051;-78
2023/07/10 09:01:33;;;;;;;12.93;3.08;;;24.50;99.90;;;;;;5110030;28;20881;-79
2023/07/10 09:04:21;;;;;;;13.65;2.88;;;24.60;99.90;;;;;;5127454;28;20134;-79
2023/07/10 09:07:08;;;;;;;11.52;3.20;;;24.70;99.90;;;;;;5127665;28;20051;-78
2023/07/10 09:09:59;;;;;;;11.85;3.50;;;25.00;99.90;;;;;;5127341;28;20059;-79
2023/07/10 09:12:52;;;;;;;9.75;2.92;;;25.10;99.90;;;;;;5126946;28;20090;-78
2023/07/10 09:15:55;;;;;;;10.93;2.88;;;25.30;99.90;;;;;;5108075;28;20062;-78
2023/07/10 09:18:56;;;;;;;7.82;3.00;;;25.10;99.90;;;;;;5127333;28;20677;-78
2023/07/10 09:21:42;;;;;;;14.98;4.72;;;25.00;99.90;;;;;;5127016;28;20084;-77
2023/07/10 09:24:28;;;;;;;9.57;2.55;;;24.70;99.90;;;;;;5112623;28;20399;-77
2023/07/10 09:27:15;;;;;;;11.77;3.38;;;24.50;99.90;;;;;;5108998;28;20047;-79
2023/07/10 09:30:01;;;;;;;12.13;2.60;;;24.70;99.90;;;;;;5109082;28;20116;-78
2023/07/10 09:32:50;;;;;;;10.55;2.80;;;24.80;99.90;;;;;;5133304;27;20122;-79
2023/07/10 09:35:41;;;;;;;14.98;2.85;;;25.10;99.90;;;;;;5147521;27;20081;-78
2023/07/10 09:38:27;;;;;;;15.70;3.83;;;25.20;99.90;;;;;;5147108;27;20047;-79
2023/07/10 09:41:20;;;;;;;15.55;3.35;;;25.20;99.90;;;;;;5133512;27;20047;-78
2023/07/10 09:44:21;;;;;;;11.05;3.50;;;25.30;99.90;;;;;;5147188;27;20145;-81
2023/07/10 09:47:13;;;;;;;13.70;3.28;;;25.20;99.90;;;;;;5133099;27;20489;-79
2023/07/10 09:50:01;;;;;;;13.38;3.83;;;25.10;99.90;;;;;;5115450;27;20147;-79
2023/07/10 09:52:55;;;;;;;13.15;2.75;;;25.00;99.90;;;;;;5133106;27;20131;-79
2023/07/10 09:55:44;;;;;;;12.38;2.65;;;24.90;99.90;;;;;;5133829;27;20101;-79
2023/07/10 09:58:30;;;;;;;12.18;3.13;;;25.30;99.90;;;;;;5132962;27;20043;-78
2023/07/10 10:01:17;;;;;;;12.00;3.17;;;25.40;99.90;;;;;;5133396;27;20051;-81
2023/07/10 10:04:03;;;;;;;14.50;3.42;;;25.20;99.90;;;;;;5114267;27;20498;-78
2023/07/10 10:07:01;;;;;;;15.07;3.42;;;24.60;99.90;;;;;;5133512;27;20051;-79
2023/07/10 10:10:17;;;;;;;13.65;3.33;;;24.70;99.90;;;;;;5133402;27;20126;-79
2023/07/10 10:13:26;;;;;;;9.57;3.25;;;24.50;99.90;;;;;;5132454;27;20115;-79
2023/07/10 10:16:36;;;;;;;12.90;3.45;;;24.20;99.90;;;;;;5133076;27;20051;-80
2023/07/10 10:19:35;;;;;;;12.45;2.70;;;24.50;99.90;;;;;;5114048;27;20043;-79
2023/07/10 10:22:29;;;;;;;12.52;3.17;;;25.00;99.90;;;;;;5133043;27;20043;-80
2023/07/10 10:25:16;;;;;;;16.35;4.35;;;25.30;99.90;;;;;;5132523;27;20049;-78
2023/07/10 10:28:31;;;;;;;12.63;3.20;;;25.40;99.90;;;;;;5114420;27;20055;-79
2023/07/10 10:31:24;;;;;;;10.98;3.25;;;25.20;99.90;;;;;;5133028;27;20054;-79
2023/07/10 10:34:29;;;;;;;10.65;2.95;;;25.70;99.90;;;;;;5131670;27;20043;-80
2023/07/10 10:37:36;;;;;;;12.32;3.13;;;26.20;99.90;;;;;;5132608;27;20051;-79
2023/07/10 10:40:41;;;;;;;12.15;3.13;;;26.10;99.90;;;;;;5132505;27;20500;-79
2023/07/10 10:43:33;;;;;;;11.63;2.60;;;25.80;99.90;;;;;;5132457;27;20051;-79
2023/07/10 10:46:21;;;;;;;12.55;2.20;;;25.60;99.90;;;;;;5114328;27;20138;-78
2023/07/10 10:49:16;;;;;;;6.18;1.58;;;25.20;99.80;;;;;;5132916;27;20137;-79
2023/07/10 10:52:20;;;;;;;5.28;1.48;;;25.10;98.60;;;;;;5114258;27;20073;-79
2023/07/10 10:55:27;;;;;;;9.65;1.38;;;25.40;97.40;;;;;;5132327;27;20050;-80
2023/07/10 10:58:27;;;;;;;7.93;1.40;;;25.60;97.50;;;;;;5113119;27;20451;-79
2023/07/10 11:01:25;;;;;;;7.78;1.83;;;25.70;96.40;;;;;;5131412;27;20146;-79
2023/07/10 11:04:38;;;;;;;11.95;1.75;;;25.60;95.90;;;;;;5131622;27;20053;-78
2023/07/10 11:07:25;;;;;;;4.93;1.42;;;26.00;95.70;;;;;;5132061;27;20085;-78
2023/07/10 11:10:17;;;;;;;7.30;1.60;;;25.90;95.50;;;;;;5131893;27;20054;-79
2023/07/10 11:13:05;;;;;;;8.18;2.25;;;26.10;94.90;;;;;;5131447;27;20047;-80
2023/07/10 11:15:51;;;;;;;4.57;0.90;;;26.10;94.90;;;;;;5116747;27;20054;-79
2023/07/10 11:18:38;;;;;;;5.93;2.15;;;26.10;94.30;;;;;;5131357;27;20157;-79
2023/07/10 11:21:24;;;;;;;7.55;1.60;;;26.30;94.60;;;;;;5131947;27;20073;-80
2023/07/10 11:24:37;;;;;;;9.75;1.80;;;26.70;95.10;;;;;;5113290;27;20551;-79
2023/07/10 11:27:27;;;;;;;9.43;1.67;;;26.70;94.90;;;;;;5113590;27;20051;-79
2023/07/10 11:30:15;;;;;;;7.28;2.05;;;26.90;95.90;;;;;;5131256;27;20448;-80
2023/07/10 11:33:16;;;;;;;7.95;1.55;;;27.20;95.40;;;;;;5113406;27;20147;-78
2023/07/10 11:36:24;;;;;;;8.65;1.92;;;27.40;94.40;;;;;;5130607;27;20058;-80
2023/07/10 11:39:16;;;;;;;7.72;1.95;;;27.50;94.60;;;;;;5132229;27;20137;-79
2023/07/10 11:42:02;;;;;;;10.75;1.80;;;27.50;94.50;;;;;;5131880;27;20092;-80
2023/07/10 11:44:59;;;;;;;9.57;2.17;;;27.60;94.40;;;;;;5131167;27;20047;-79
2023/07/10 11:47:46;;;;;;;8.43;2.03;;;27.70;93.80;;;;;;5113121;27;20055;-79
2023/07/10 11:50:34;;;;;;;8.07;1.83;;;27.90;94.30;;;;;;5131062;27;20075;-78
2023/07/10 11:53:22;;;;;;;8.02;2.10;;;27.90;93.90;;;;;;5131281;27;20050;-78
2023/07/10 11:56:14;;;;;;;7.05;1.50;;;28.00;93.40;;;;;;5112292;27;20055;-79
2023/07/10 11:59:14;;;;;;;8.02;2.05;;;27.70;93.60;;;;;;5130732;27;20495;-79
2023/07/10 12:02:00;;;;;;;6.72;1.98;;;27.70;94.00;;;;;;5113810;27;20061;-79
2023/07/10 12:04:46;;;;;;;10.80;2.47;;;27.80;94.00;;;;;;5098362;27;20082;-79
2023/07/10 12:07:32;;;;;;;7.10;1.80;;;27.80;94.20;;;;;;5130267;27;20483;-80
2023/07/10 12:10:19;;;;;;;8.68;2.10;;;28.10;93.70;;;;;;5131120;27;20047;-78
2023/07/10 12:13:27;;;;;;;14.23;2.20;;;28.10;93.10;;;;;;5131090;27;20058;-78
2023/07/10 12:16:14;;;;;;;8.98;1.65;;;28.20;92.50;;;;;;5116078;27;20083;-78
2023/07/10 12:19:13;;;;;;;14.13;2.60;;;28.20;93.30;;;;;;5130267;27;20138;-78
2023/07/10 12:22:01;;;;;;;6.63;1.42;;;28.60;94.30;;;;;;5130613;27;20057;-78
2023/07/10 12:24:58;;;;;;;6.90;1.90;;;28.50;93.00;;;;;;5115484;27;20051;-79
2023/07/10 12:27:44;;;;;;;6.35;1.63;;;29.00;92.70;;;;;;5130400;27;20050;-79
2023/07/10 12:30:31;;;;;;;6.78;1.55;;;28.90;92.30;;;;;;5130296;27;20161;-78
2023/07/10 12:33:35;;;;;;;6.78;1.60;;;28.70;92.80;;;;;;5130303;27;20039;-79
2023/07/10 12:36:30;;;;;;;7.15;1.38;;;28.80;92.00;;;;;;5098558;28;20522;-80
2023/07/10 12:39:17;;;;;;;9.00;1.55;;;29.00;91.70;;;;;;5098581;28;20055;-81
2023/07/10 12:42:32;;;;;;;8.77;1.58;;;29.00;92.00;;;;;;5130152;28;20058;-80
2023/07/10 12:45:35;;;;;;;7.30;1.53;;;29.10;91.40;;;;;;5111933;28;20390;-76
2023/07/10 12:48:23;;;;;;;7.00;1.77;;;29.50;91.70;;;;;;5130751;28;20045;-78
2023/07/10 12:51:27;;;;;;;9.23;1.80;;;29.50;91.50;;;;;;5130950;28;20051;-77
2023/07/10 12:54:25;;;;;;;10.63;1.88;;;29.20;90.90;;;;;;5131023;28;20135;-77
2023/07/10 12:57:28;;;;;;;12.23;2.03;;;29.00;91.70;;;;;;5130382;28;20137;-77
2023/07/10 13:00:14;;;;;;;8.38;1.75;;;28.90;92.40;;;;;;5130061;28;20048;-77
2023/07/10 13:03:00;;;;;;;8.35;2.10;;;28.90;92.10;;;;;;5130605;28;20047;-79
2023/07/10 13:05:57;;;;;;;8.35;1.80;;;28.60;91.70;;;;;;5112197;28;20159;-80
2023/07/10 13:08:47;;;;;;;9.05;1.95;;;28.80;91.80;;;;;;5130511;28;20454;-79
2023/07/10 13:11:33;;;;;;;6.63;1.52;;;29.00;91.70;;;;;;5115957;28;20054;-78
2023/07/10 13:14:30;;;;;;;6.05;2.13;;;28.70;91.70;;;;;;5130306;28;20099;-80
2023/07/10 13:17:23;;;;;;;8.48;2.13;;;28.70;92.20;;;;;;5130323;28;20066;-79
2023/07/10 13:20:26;;;;;;;7.63;1.80;;;29.50;92.10;;;;;;5130952;28;20066;-79
2023/07/10 13:23:12;;;;;;;8.20;2.25;;;29.50;90.50;;;;;;5112534;27;20050;-80
2023/07/10 13:25:58;;;;;;;7.20;2.42;;;29.70;91.70;;;;;;5133871;27;20061;-80
2023/07/10 13:28:45;;;;;;;11.02;1.98;;;29.70;91.30;;;;;;5134155;27;20153;-80
2023/07/10 13:31:32;;;;;;;7.40;1.92;;;30.00;90.10;;;;;;5134184;27;20576;-81
2023/07/10 13:38:20;;;;;;;7.15;1.80;;;30.10;87.90;;;;;;5130854;27;20127;-80
2023/07/10 13:41:15;;;;;;;9.95;2.10;;;30.60;89.60;;;;;;5133427;27;20047;-79
2023/07/10 13:44:01;;;;;;;;;;;30.80;88.70;;;;;;5134446;27;20047;-79
2023/07/10 13:46:47;;;;;;;13.65;2.10;;;31.00;88.10;;;;;;5133046;27;19919;-80
2023/07/10 13:49:34;;;;;;;9.60;2.28;;;30.80;87.80;;;;;;5114464;27;20739;-80
2023/07/10 13:52:25;;;;;;;9.80;1.83;;;31.00;87.70;;;;;;5133125;27;20050;-80
2023/07/10 13:55:13;;;;;;;7.47;2.17;;;31.00;85.70;;;;;;5133192;27;20047;-81
2023/07/10 13:57:59;;;;;;;8.43;1.67;;;30.50;87.00;;;;;;5114785;27;20051;-79
2023/07/10 14:00:47;;;;;;;7.88;1.38;;;30.20;86.90;;;;;;5132978;27;20493;-79
2023/07/10 14:03:35;;;;;;;10.20;1.88;;;30.20;87.80;;;;;;5132689;27;20062;-79
2023/07/10 14:06:28;;;;;;;6.93;1.63;;;30.80;87.70;;;;;;5132733;27;20047;-80
2023/07/10 14:09:17;;;;;;;5.03;1.55;;;31.20;85.40;;;;;;5133313;27;20055;-80
2023/07/10 14:12:03;;;;;;;8.00;1.67;;;31.60;84.80;;;;;;5114938;27;20053;-82
2023/07/10 14:14:49;;;;;;;3.47;0.50;;;31.00;81.30;;;;;;5133646;27;20051;-80
2023/07/10 14:17:35;;;;;;;3.58;0.80;;;30.70;72.30;;;;;;5114446;27;20051;-80
2023/07/10 14:20:23;;;;;;;3.40;0.70;;;31.10;70.60;;;;;;5114932;27;20489;-79
2023/07/10 14:23:14;;;;;;;4.15;0.73;;;31.70;70.90;;;;;;5117955;27;20051;-80
2023/07/10 14:26:00;;;;;;;5.25;1.30;;;31.80;69.00;;;;;;5133722;27;20046;-80
2023/07/10 14:28:47;;;;;;;6.10;0.93;;;31.70;69.40;;;;;;5115238;27;20507;-79
2023/07/10 14:31:34;;;;;;;2.17;0.73;;;31.60;67.80;;;;;;5132917;27;20077;-79
2023/07/10 14:34:20;;;;;;;5.47;0.93;;;31.20;64.10;;;;;;5132725;27;20047;-80
2023/07/10 14:37:38;;;;;;;4.75;0.90;;;32.00;63.70;;;;;;5132541;27;20105;-79
2023/07/10 14:40:24;;;;;;;3.60;0.85;;;31.90;63.80;;;;;;5113461;27;20518;-78
2023/07/10 14:43:10;;;;;;;4.15;0.77;;;31.90;63.60;;;;;;5114512;27;20066;-79
2023/07/10 14:45:58;;;;;;;5.15;1.40;;;31.30;64.20;;;;;;5131689;27;20043;-79
2023/07/10 14:48:44;;;;;;;5.70;1.48;;;30.80;64.20;;;;;;5113868;27;20512;-79
2023/07/10 14:51:30;;;;;;;9.32;1.92;;;30.30;65.50;;;;;;5132680;27;20061;-82
2023/07/10 14:54:16;;;;;;;5.20;1.20;;;30.20;66.20;;;;;;5131925;27;20050;-78
2023/07/10 14:57:17;;;;;;;4.95;1.20;;;30.60;67.50;;;;;;5132267;27;20047;-80
2023/07/10 15:00:19;;;;;;;5.35;1.27;;;31.40;68.70;;;;;;5132263;27;20043;-80
2023/07/10 15:03:07;;;;;;;4.78;1.13;;;31.40;67.60;;;;;;5132441;27;20054;-80
2023/07/10 15:05:54;;;;;;;6.55;1.23;;;30.80;65.80;;;;;;5131999;27;20414;-81
2023/07/10 15:08:41;;;;;;;6.72;1.08;;;30.00;65.90;;;;;;5132529;27;20073;-79
2023/07/10 15:11:27;;;;;;;4.30;1.17;;;30.40;68.40;;;;;;5132294;27;20043;-79
2023/07/10 15:14:13;;;;;;;5.60;1.10;;;31.00;67.40;;;;;;5132626;27;20051;-79
2023/07/10 15:16:59;;;;;;;6.45;1.20;;;30.90;66.10;;;;;;5131502;27;20050;-78
2023/07/10 15:19:46;;;;;;;4.55;1.23;;;31.00;69.40;;;;;;5131470;27;20498;-79
2023/07/10 15:22:32;;;;;;;6.65;1.20;;;30.80;68.50;;;;;;5116080;27;20140;-79
2023/07/10 15:25:21;;;;;;;5.68;1.40;;;31.20;69.50;;;;;;5116903;27;20082;-80
2023/07/10 15:28:07;;;;;;;9.80;1.98;;;31.10;68.80;;;;;;5098778;27;20402;-79
2023/07/10 15:30:56;;;;;;;8.05;1.85;;;30.70;70.00;;;;;;5131512;27;20090;-79
2023/07/10 15:33:43;;;;;;;8.88;2.45;;;30.50;75.60;;;;;;5131964;27;20050;-79
2023/07/10 15:36:29;;;;;;;10.75;2.05;;;30.20;78.80;;;;;;5130160;27;20051;-78
2023/07/10 15:39:16;;;;;;;9.23;1.63;;;30.60;79.00;;;;;;5131154;27;20043;-77
2023/07/10 15:42:03;;;;;;;4.93;1.35;;;30.10;73.90;;;;;;5112721;27;20054;-82
2023/07/10 15:44:49;;;;;;;6.72;1.30;;;29.80;71.80;;;;;;5131267;27;20047;-77
2023/07/10 15:47:35;;;;;;;13.52;1.90;;;29.00;72.40;;;;;;5115687;27;20087;-79
2023/07/10 15:50:29;;;;;;;8.60;1.90;;;29.00;73.30;;;;;;5132326;27;20111;-80
2023/07/10 15:53:20;;;;;;;7.93;1.65;;;28.80;73.10;;;;;;5112536;27;20057;-79
2023/07/10 15:56:06;;;;;;;6.30;1.60;;;28.40;73.00;;;;;;5130510;27;20055;-80
2023/07/10 15:58:53;;;;;;;7.68;1.45;;;28.10;72.70;;;;;;5130655;27;20108;-81
2023/07/10 16:01:41;;;;;;;4.65;1.20;;;27.90;73.10;;;;;;5130469;27;20142;-81
2023/07/10 16:04:27;;;;;;;6.95;1.52;;;27.30;75.10;;;;;;5130469;27;20051;-81
2023/07/10 16:07:13;;;;;;;6.97;1.50;;;27.30;75.50;;;;;;5131058;27;20058;-79
2023/07/10 16:10:00;;;;;;;6.43;1.88;;;27.10;75.40;;;;;;5112709;27;20058;-81
2023/07/10 16:12:49;;;;;;;6.05;1.60;;;27.10;75.40;;;;;;5131390;27;20058;-81
2023/07/10 16:15:35;;;;;;;6.80;1.77;;;26.70;75.50;;;;;;5112538;27;20062;-78
2023/07/10 16:18:28;;;;;;;4.97;1.65;;;26.60;75.90;;;;;;5131021;27;20050;-79
2023/07/10 16:21:18;;;;;;;7.60;1.60;;;26.50;77.70;;;;;;5130413;27;20459;-79
2023/07/10 16:24:14;;;;;;;6.93;1.95;;;26.30;78.00;;;;;;5130268;27;20047;-80
2023/07/10 16:27:00;;;;;;;7.20;1.75;;;26.10;78.40;;;;;;5131022;27;20076;-80
2023/07/10 16:29:46;;;;;;;6.70;1.33;;;26.00;79.70;;;;;;5130726;27;20054;-79
2023/07/10 16:32:32;;;;;;;5.05;1.20;;;26.00;79.80;;;;;;5130546;27;20370;-80
2023/07/10 16:35:23;;;;;;;9.20;1.70;;;25.60;79.10;;;;;;5130898;27;20047;-78
2023/07/10 16:38:12;;;;;;;5.10;1.17;;;25.40;79.90;;;;;;5130160;28;20055;-80
2023/07/10 16:40:58;;;;;;;10.63;1.70;;;25.20;80.80;;;;;;5130022;28;20146;-78
2023/07/10 16:43:46;;;;;;;9.68;1.88;;;25.10;81.80;;;;;;5098393;28;20051;-79
2023/07/10 16:46:33;;;;;;;7.68;1.77;;;24.90;81.90;;;;;;5130910;28;20437;-80
2023/07/10 16:49:19;;;;;;;6.95;1.63;;;25.00;82.10;;;;;;5129774;28;20130;-80
2023/07/10 16:52:10;;;;;;;6.90;1.30;;;24.80;82.80;;;;;;5111800;28;20061;-80
2023/07/10 16:54:56;;;;;;;5.68;1.55;;;24.70;84.10;;;;;;5130120;28;20090;-81
2023/07/10 16:57:42;;;;;;;8.55;1.48;;;24.80;86.10;;;;;;5115452;27;20055;-80
2023/07/10 17:00:29;;;;;;;10.68;1.75;;;24.80;85.10;;;;;;5116351;27;20047;-77
2023/07/10 17:03:27;;;;;;;9.55;1.90;;;24.50;84.90;;;;;;5134967;27;20047;-80
2023/07/10 17:06:14;;;;;;;6.05;1.40;;;24.40;86.50;;;;;;5115732;27;20054;-79
2023/07/10 17:09:01;;;;;;;7.70;1.75;;;24.20;87.70;;;;;;5134610;27;20043;-81
2023/07/10 17:11:47;;;;;;;7.30;1.70;;;24.20;87.80;;;;;;5106406;27;20100;-80
2023/07/10 17:14:33;;;;;;;9.23;1.98;;;24.20;88.40;;;;;;5134646;27;20067;-78
2023/07/10 17:17:21;;;;;;;6.70;1.70;;;24.10;89.60;;;;;;5115583;27;20051;-79
2023/07/10 17:20:13;;;;;;;9.48;1.88;;;24.10;89.20;;;;;;5134394;27;20053;-80
2023/07/10 17:22:59;;;;;;;8.93;1.70;;;24.00;89.80;;;;;;5135323;27;20055;-80
2023/07/10 17:25:47;;;;;;;5.85;1.40;;;24.10;90.10;;;;;;5134514;27;20055;-79
2023/07/10 17:28:39;;;;;;;5.80;1.27;;;23.90;89.00;;;;;;5102069;27;20487;-80
2023/07/10 17:31:28;;;;;;;9.95;1.83;;;24.00;88.90;;;;;;5133565;27;20054;-79
2023/07/10 17:34:19;;;;;;;6.28;1.20;;;23.80;88.60;;;;;;5101103;27;20415;-79
2023/07/10 17:37:08;;;;;;;7.10;1.52;;;23.80;87.50;;;;;;5133182;27;20487;-80
2023/07/10 17:39:54;;;;;;;7.07;2.08;;;23.70;87.20;;;;;;5133475;27;20047;-80
2023/07/10 17:42:41;;;;;;;11.10;2.83;;;23.70;87.90;;;;;;5133567;27;20517;-78
2023/07/10 17:45:27;;;;;;;6.05;1.17;;;23.70;86.90;;;;;;5115351;27;20419;-77
2023/07/10 17:48:19;;;;;;;5.88;1.30;;;23.70;86.90;;;;;;5133066;27;20051;-79
2023/07/10 17:51:28;;;;;;;8.55;1.58;;;23.60;87.90;;;;;;5134422;27;20047;-81
2023/07/10 17:54:29;;;;;;;7.63;1.50;;;23.50;85.50;;;;;;5117273;27;20499;-80
2023/07/10 17:57:17;;;;;;;4.75;1.20;;;23.30;86.70;;;;;;5132702;27;20146;-79
2023/07/10 18:00:04;;;;;;;6.75;1.52;;;23.20;87.00;;;;;;5115628;27;20086;-79
2023/07/10 18:02:50;;;;;;;7.38;1.40;;;23.10;87.30;;;;;;5114299;27;20105;-80
2023/07/10 18:05:36;;;;;;;6.97;1.45;;;23.00;87.80;;;;;;5101657;27;20051;-81
2023/07/10 18:08:29;;;;;;;9.85;1.48;;;22.90;88.90;;;;;;5132646;27;20046;-80
2023/07/10 18:11:19;;;;;;;6.45;1.67;;;22.80;88.90;;;;;;5132608;27;20110;-79
2023/07/10 18:14:11;;;;;;;8.88;1.52;;;22.70;89.20;;;;;;5132896;27;20089;-80
2023/07/10 18:16:57;;;;;;;12.23;2.00;;;22.60;89.60;;;;;;5132725;27;20512;-79
2023/07/10 18:19:43;;;;;;;7.43;1.60;;;22.50;90.20;;;;;;5132901;27;20075;-79
2023/07/10 18:22:29;;;;;;;11.80;2.65;;;22.40;90.60;;;;;;5132913;27;20117;-79
2023/07/10 18:25:19;;;;;;;6.35;1.27;;;22.30;91.00;;;;;;5132905;27;20553;-81
2023/07/10 18:28:16;;;;;;;8.80;1.63;;;22.30;91.20;;;;;;5118326;27;20087;-82
2023/07/10 18:31:02;;;;;;;6.57;1.10;;;22.20;91.50;;;;;;5133103;27;20495;-81
2023/07/10 18:33:49;;;;;;;6.72;1.35;;;22.30;91.60;;;;;;5133498;27;20047;-78
2023/07/10 18:36:35;;;;;;;5.63;1.42;;;22.30;91.90;;;;;;5131848;27;20676;-79
2023/07/10 18:39:21;;;;;;;6.20;1.42;;;22.20;92.20;;;;;;5118080;27;20043;-78
2023/07/10 18:42:15;;;;;;;8.80;2.08;;;22.10;92.60;;;;;;5114208;27;20047;-79
2023/07/10 18:45:01;;;;;;;6.18;1.60;;;22.10;93.30;;;;;;5132517;27;20066;-79
2023/07/10 18:47:47;;;;;;;8.30;1.60;;;22.00;93.30;;;;;;5117909;27;20051;-80
2023/07/10 18:50:34;;;;;;;4.45;1.30;;;21.90;93.60;;;;;;5131961;27;20138;-79
2023/07/10 18:53:26;;;;;;;9.13;1.67;;;22.00;93.90;;;;;;5133095;27;20069;-79
2023/07/10 18:56:13;;;;;;;8.30;1.60;;;21.90;94.00;;;;;;5132977;27;20043;-80
2023/07/10 18:58:59;;;;;;;7.50;1.42;;;21.70;93.90;;;;;;5132913;27;20069;-80
2023/07/10 19:01:47;;;;;;;7.65;1.35;;;21.60;93.80;;;;;;5131833;27;20085;-79
2023/07/10 19:04:33;;;;;;;4.22;1.30;;;21.50;93.80;;;;;;5114637;27;20054;-79
2023/07/10 19:07:19;;;;;;;7.47;1.50;;;21.40;94.00;;;;;;5132694;27;20059;-79
2023/07/10 19:10:06;;;;;;;6.07;1.45;;;21.40;94.10;;;;;;5132487;27;20054;-78
2023/07/10 19:12:52;;;;;;;10.35;1.67;;;21.30;94.20;;;;;;5114103;27;20051;-78
2023/07/10 19:15:38;;;;;;;8.40;1.38;;;21.30;94.80;;;;;;5133404;27;20126;-81
2023/07/10 19:18:34;;;;;;;6.03;1.70;;;21.30;94.70;;;;;;5131794;27;20086;-81
2023/07/10 19:21:20;;;;;;;8.27;1.55;;;21.30;95.00;;;;;;5112165;27;20076;-78
2023/07/10 19:24:21;;;;;;;4.47;1.13;;;21.30;95.20;;;;;;5131240;27;20134;-79
2023/07/10 19:27:08;;;;;;;5.50;1.33;;;21.20;95.80;;;;;;5113408;27;20051;-80
2023/07/10 19:29:54;;;;;;;8.65;2.80;;;21.20;95.80;;;;;;5131386;27;20130;-80
2023/07/10 19:32:40;;;;;;;6.32;1.88;;;21.10;96.10;;;;;;5112574;27;20059;-79
2023/07/10 19:35:26;;;;;;;5.97;1.40;;;21.10;96.30;;;;;;5115951;27;20039;-79
2023/07/10 19:38:24;;;;;;;7.35;1.70;;;21.10;96.50;;;;;;5131612;27;20059;-80
2023/07/10 19:41:11;;;;;;;7.75;1.83;;;21.00;97.20;;;;;;5112956;27;20047;-80
2023/07/10 19:43:57;;;;;;;4.78;1.80;;;20.90;97.30;;;;;;5131209;27;20051;-80
2023/07/10 19:46:44;;;;;;;8.35;2.08;;;20.90;97.60;;;;;;5131106;27;20141;-79
2023/07/10 19:49:31;;;;;;;6.15;1.55;;;20.90;97.70;;;;;;5131805;27;20131;-79
2023/07/10 19:52:18;;;;;;;6.95;1.90;;;20.80;98.40;;;;;;5098998;27;20533;-79
2023/07/10 19:55:05;;;;;;;8.30;1.73;;;20.80;98.90;;;;;;5131588;27;20517;-80
2023/07/10 19:57:51;;;;;;;7.00;1.50;;;20.60;99.50;;;;;;5131415;27;20095;-79
2023/07/10 20:00:37;;;;;;;8.52;1.90;;;20.50;99.90;;;;;;5131223;27;20054;-80
2023/07/10 20:03:29;;;;;;;7.40;1.85;;;20.40;99.90;;;;;;5130747;27;20108;-80
2023/07/10 20:06:30;;;;;;;7.93;1.35;;;20.30;99.90;;;;;;5130255;27;20047;-80
2023/07/10 20:09:19;;;;;;;5.15;1.30;;;20.30;99.90;;;;;;5131509;27;20055;-80
2023/07/10 20:12:23;;;;;;;7.80;1.33;;;20.20;99.90;;;;;;5131439;27;20046;-79
2023/07/10 20:15:14;;;;;;;9.18;1.45;;;20.20;99.90;;;;;;5130747;27;20044;-79
2023/07/10 20:18:01;;;;;;;6.88;1.20;;;20.10;99.90;;;;;;5131261;27;20059;-78
2023/07/10 20:20:47;;;;;;;11.90;2.88;;;20.00;99.90;;;;;;5112630;27;20062;-79
2023/07/10 20:23:33;;;;;;;5.43;1.40;;;19.90;99.90;;;;;;5112646;28;20051;-77
2023/07/10 20:26:22;;;;;;;6.15;1.50;;;19.80;99.90;;;;;;5130936;27;20402;-77
2023/07/10 20:29:20;;;;;;;15.02;1.95;;;19.80;99.90;;;;;;5112560;27;20123;-79
2023/07/10 20:32:12;;;;;;;7.13;2.03;;;19.70;99.90;;;;;;5098166;28;20092;-78
2023/07/10 20:34:58;;;;;;;6.63;1.50;;;19.70;99.90;;;;;;5112812;28;20046;-78
2023/07/10 20:37:46;;;;;;;7.93;1.65;;;19.60;99.90;;;;;;5132770;27;20062;-79
2023/07/10 20:40:32;;;;;;;10.05;1.83;;;19.50;99.90;;;;;;5113429;28;20103;-78
2023/07/10 20:43:22;;;;;;;9.32;1.63;;;19.50;99.90;;;;;;5112611;28;20110;-79
2023/07/10 20:46:19;;;;;;;8.55;1.95;;;19.40;99.90;;;;;;5130080;28;20491;-78
2023/07/10 20:49:13;;;;;;;5.75;1.50;;;19.30;99.90;;;;;;5130523;28;20051;-79
2023/07/10 20:51:59;;;;;;;6.22;1.40;;;19.30;99.90;;;;;;5115489;28;20103;-80
2023/07/10 20:54:46;;;;;;;8.48;1.58;;;19.10;99.90;;;;;;5130582;28;20043;-78
2023/07/10 20:57:33;;;;;;;4.43;1.30;;;19.10;99.90;;;;;;5130972;28;20503;-80
2023/07/10 21:00:19;;;;;;;3.63;1.05;;;19.00;99.90;;;;;;5130275;28;20380;-80
2023/07/10 21:03:23;;;;;;;6.78;1.63;;;19.00;99.90;;;;;;5130788;28;20102;-80
2023/07/10 21:06:12;;;;;;;7.38;1.70;;;19.00;99.90;;;;;;5130187;28;20062;-79
